createdAt,value
2017-09-04T00:01:55.076Z,0.80
2017-09-04T00:04:22.562Z,1.20
2017-09-04T00:06:50.033Z,1.20
2017-09-04T00:09:17.515Z,1.00
2017-09-04T00:11:44.990Z,0.97
2017-09-04T00:14:12.500Z,1.00
2017-09-04T00:16:40.004Z,1.00
2017-09-04T00:19:07.481Z,0.80
2017-09-04T00:21:34.961Z,1.10
2017-09-04T00:24:02.453Z,0.93
2017-09-04T00:26:29.943Z,0.90
2017-09-04T00:28:57.444Z,1.10
2017-09-04T00:31:24.941Z,0.90
2017-09-04T00:33:52.431Z,0.90
2017-09-04T00:36:19.919Z,1.23
2017-09-04T00:38:47.409Z,1.27
2017-09-04T00:41:14.894Z,1.10
2017-09-04T00:43:42.375Z,1.00
2017-09-04T00:46:09.855Z,0.90
2017-09-04T00:48:37.353Z,1.40
2017-09-04T00:51:04.845Z,1.00
2017-09-04T00:53:32.332Z,1.10
2017-09-04T00:55:59.813Z,0.97
2017-09-04T00:58:27.296Z,1.53
2017-09-04T01:00:54.851Z,0.90
2017-09-04T01:03:22.348Z,1.20
2017-09-04T01:05:49.838Z,1.10
2017-09-04T01:08:17.323Z,0.90
2017-09-04T01:10:44.822Z,1.40
2017-09-04T01:13:12.312Z,1.10
2017-09-04T01:15:39.802Z,1.30
2017-09-04T01:18:07.290Z,1.10
2017-09-04T01:20:34.770Z,1.13
2017-09-04T01:23:02.251Z,1.00
2017-09-04T01:25:29.736Z,1.60
2017-09-04T01:27:57.227Z,1.00
2017-09-04T01:30:24.714Z,1.13
2017-09-04T01:32:52.218Z,1.13
2017-09-04T01:35:19.696Z,1.13
2017-09-04T01:37:47.186Z,0.90
2017-09-04T01:40:14.667Z,1.13
2017-09-04T01:42:42.149Z,0.97
2017-09-04T01:45:09.644Z,1.37
2017-09-04T01:47:37.134Z,1.10
2017-09-04T01:50:05.381Z,0.90
2017-09-04T01:52:32.866Z,1.10
2017-09-04T01:55:00.340Z,1.30
2017-09-04T01:57:27.824Z,1.00
2017-09-04T01:59:55.312Z,1.20
2017-09-04T02:02:22.804Z,1.10
2017-09-04T02:04:50.301Z,1.53
2017-09-04T02:07:17.791Z,1.10
2017-09-04T02:09:45.279Z,1.00
2017-09-04T02:12:14.170Z,1.00
2017-09-04T02:14:41.650Z,1.30
2017-09-04T02:17:09.135Z,2.20
2017-09-04T02:19:36.624Z,1.20
2017-09-04T02:22:04.101Z,1.20
2017-09-04T02:24:31.605Z,1.23
2017-09-04T02:26:59.095Z,1.10
2017-09-04T02:29:26.589Z,0.90
2017-09-04T02:31:54.069Z,1.60
2017-09-04T02:34:21.545Z,1.20
2017-09-04T02:36:49.021Z,1.10
2017-09-04T02:39:16.517Z,1.10
2017-09-04T02:41:44.004Z,1.10
2017-09-04T02:44:11.486Z,1.40
2017-09-04T02:46:38.975Z,1.10
2017-09-04T02:49:06.462Z,1.13
2017-09-04T02:51:33.948Z,1.43
2017-09-04T02:54:01.434Z,1.50
2017-09-04T02:56:28.910Z,1.00
2017-09-04T02:58:56.394Z,1.30
2017-09-04T03:01:23.883Z,1.47
2017-09-04T03:03:51.365Z,1.40
2017-09-04T03:06:18.863Z,1.30
2017-09-04T03:08:46.339Z,1.27
2017-09-04T03:11:13.822Z,1.10
2017-09-04T03:13:41.312Z,1.50
2017-09-04T03:16:08.793Z,1.23
2017-09-04T03:18:36.275Z,1.20
2017-09-04T03:21:03.760Z,1.33
2017-09-04T03:23:31.245Z,1.60
2017-09-04T03:25:58.729Z,1.70
2017-09-04T03:28:26.215Z,1.37
2017-09-04T03:30:53.692Z,1.60
2017-09-04T03:33:21.178Z,1.73
2017-09-04T03:35:48.658Z,1.50
2017-09-04T03:38:16.135Z,1.30
2017-09-04T03:40:43.623Z,1.87
2017-09-04T03:43:11.110Z,1.70
2017-09-04T03:45:38.613Z,1.30
2017-09-04T03:48:06.102Z,1.70
2017-09-04T03:50:33.589Z,1.20
2017-09-04T03:53:01.084Z,1.30
2017-09-04T03:55:28.573Z,1.30
2017-09-04T03:57:56.060Z,1.47
2017-09-04T04:00:23.541Z,1.23
2017-09-04T04:02:51.022Z,1.20
2017-09-04T04:05:18.509Z,1.80
2017-09-04T04:07:46.007Z,1.87
2017-09-04T04:10:13.490Z,1.30
2017-09-04T04:12:40.998Z,1.00
2017-09-04T04:15:08.487Z,1.30
2017-09-04T04:17:35.993Z,1.23
2017-09-04T04:20:03.479Z,1.40
2017-09-04T04:22:30.967Z,1.83
2017-09-04T04:24:58.545Z,1.93
2017-09-04T04:27:26.028Z,2.17
2017-09-04T04:29:53.520Z,1.93
2017-09-04T04:32:21.008Z,2.00
2017-09-04T04:34:48.501Z,2.77
2017-09-04T04:37:15.985Z,2.30
2017-09-04T04:39:43.474Z,1.70
2017-09-04T04:42:10.966Z,1.50
2017-09-04T04:44:38.440Z,2.03
2017-09-04T04:47:05.918Z,1.73
2017-09-04T04:49:33.411Z,2.27
2017-09-04T04:52:00.904Z,2.30
2017-09-04T04:54:28.379Z,2.10
2017-09-04T04:56:55.862Z,2.10
2017-09-04T04:59:23.456Z,2.07
2017-09-04T05:01:50.944Z,1.77
2017-09-04T05:04:18.443Z,2.40
2017-09-04T05:06:45.917Z,1.83
2017-09-04T05:09:13.411Z,2.37
2017-09-04T05:11:40.907Z,2.23
2017-09-04T05:14:08.394Z,3.43
2017-09-04T05:16:35.876Z,2.40
2017-09-04T05:19:03.362Z,2.10
2017-09-04T05:21:30.859Z,2.97
2017-09-04T05:23:58.342Z,1.70
2017-09-04T05:26:25.827Z,1.60
2017-09-04T05:28:53.304Z,2.37
2017-09-04T05:31:20.787Z,2.03
2017-09-04T05:33:48.274Z,2.57
2017-09-04T05:36:15.763Z,2.33
2017-09-04T05:38:43.265Z,2.57
2017-09-04T05:41:10.741Z,1.50
2017-09-04T05:43:38.234Z,1.77
2017-09-04T05:46:06.483Z,2.87
2017-09-04T05:48:33.974Z,2.10
2017-09-04T05:51:01.471Z,1.83
2017-09-04T05:53:28.960Z,2.10
2017-09-04T05:55:56.447Z,1.87
2017-09-04T05:58:23.929Z,2.60
2017-09-04T06:00:51.413Z,2.00
2017-09-04T06:03:18.951Z,2.07
2017-09-04T06:05:46.481Z,2.97
2017-09-04T06:08:13.958Z,1.80
2017-09-04T06:10:41.444Z,2.43
2017-09-04T06:13:08.930Z,2.27
2017-09-04T06:15:36.406Z,2.10
2017-09-04T06:18:03.882Z,2.27
2017-09-04T06:20:31.362Z,2.73
2017-09-04T06:22:58.850Z,2.13
2017-09-04T06:25:26.332Z,1.57
2017-09-04T06:27:53.820Z,2.67
2017-09-04T06:30:21.321Z,2.50
2017-09-04T06:32:48.860Z,2.00
2017-09-04T06:35:16.355Z,1.80
2017-09-04T06:37:43.833Z,2.10
2017-09-04T06:40:11.323Z,1.97
2017-09-04T06:42:38.813Z,2.20
2017-09-04T06:45:06.297Z,2.00
2017-09-04T06:47:33.777Z,2.20
2017-09-04T06:50:01.541Z,2.20
2017-09-04T06:52:29.013Z,1.97
2017-09-04T06:54:56.510Z,2.57
2017-09-04T06:57:24.007Z,2.10
2017-09-04T06:59:51.486Z,2.30
2017-09-04T07:02:18.984Z,2.43
2017-09-04T07:04:46.475Z,4.40
2017-09-04T07:07:13.967Z,2.00
2017-09-04T07:09:41.464Z,1.60
2017-09-04T07:12:08.961Z,2.20
2017-09-04T07:14:36.443Z,2.63
2017-09-04T07:17:03.954Z,2.07
2017-09-04T07:19:31.439Z,2.50
2017-09-04T07:21:58.970Z,2.50
2017-09-04T07:24:26.446Z,2.70
2017-09-04T07:26:53.938Z,2.30
2017-09-04T07:29:21.425Z,1.93
2017-09-04T07:31:48.917Z,2.27
2017-09-04T07:34:16.405Z,1.97
2017-09-04T07:36:43.892Z,2.17
2017-09-04T07:39:11.372Z,1.97
2017-09-04T07:41:38.841Z,2.50
2017-09-04T07:44:06.334Z,2.63
2017-09-04T07:46:33.822Z,2.60
2017-09-04T07:49:01.305Z,3.43
2017-09-04T07:51:28.787Z,2.23
2017-09-04T07:53:56.274Z,2.70
2017-09-04T07:56:23.757Z,2.57
2017-09-04T07:58:51.293Z,3.40
2017-09-04T08:01:18.769Z,2.53
2017-09-04T08:03:46.274Z,2.93
2017-09-04T08:06:13.765Z,2.53
2017-09-04T08:08:41.254Z,1.80
2017-09-04T08:11:08.743Z,2.10
2017-09-04T08:13:36.226Z,2.70
2017-09-04T08:16:03.697Z,2.30
2017-09-04T08:18:31.186Z,2.23
2017-09-04T08:20:58.669Z,2.40
2017-09-04T08:23:26.161Z,2.57
2017-09-04T08:25:53.696Z,2.30
2017-09-04T08:28:21.178Z,2.10
2017-09-04T08:30:48.666Z,2.00
2017-09-04T08:33:16.136Z,2.40
2017-09-04T08:35:43.627Z,2.60
2017-09-04T08:38:11.114Z,2.07
2017-09-04T08:40:38.611Z,2.30
2017-09-04T08:43:06.107Z,2.67
2017-09-04T08:45:33.604Z,2.10
2017-09-04T08:48:01.093Z,2.60
2017-09-04T08:50:28.566Z,2.80
2017-09-04T08:52:56.054Z,2.10
2017-09-04T08:55:23.544Z,2.57
2017-09-04T08:57:51.029Z,2.13
2017-09-04T09:00:18.513Z,2.57
2017-09-04T09:02:46.019Z,2.80
2017-09-04T09:05:13.504Z,2.10
2017-09-04T09:07:40.982Z,2.50
2017-09-04T09:10:08.457Z,2.33
2017-09-04T09:12:35.955Z,2.40
2017-09-04T09:15:03.440Z,2.40
2017-09-04T09:17:30.946Z,2.10
2017-09-04T09:19:58.435Z,2.40
2017-09-04T09:22:26.055Z,2.50
2017-09-04T09:24:53.533Z,3.10
2017-09-04T09:27:21.027Z,3.40
2017-09-04T09:29:48.516Z,2.93
2017-09-04T09:32:16.010Z,2.10
2017-09-04T09:34:43.485Z,2.80
2017-09-04T09:37:10.966Z,2.47
2017-09-04T09:39:38.467Z,2.37
2017-09-04T09:42:05.949Z,1.77
2017-09-04T09:44:33.425Z,2.40
2017-09-04T09:47:00.923Z,2.90
2017-09-04T09:49:28.505Z,2.27
2017-09-04T09:51:55.993Z,2.70
2017-09-04T09:54:23.483Z,2.10
2017-09-04T09:56:50.981Z,2.60
2017-09-04T09:59:18.458Z,1.50
2017-09-04T10:01:45.951Z,1.90
2017-09-04T10:04:13.434Z,2.77
2017-09-04T10:06:40.922Z,2.50
2017-09-04T10:09:08.435Z,2.30
2017-09-04T10:11:35.936Z,3.53
2017-09-04T10:14:03.437Z,2.70
2017-09-04T10:16:30.920Z,2.30
2017-09-04T10:18:58.418Z,1.90
2017-09-04T10:21:25.912Z,2.27
2017-09-04T10:23:53.406Z,1.50
2017-09-04T10:26:20.896Z,1.87
2017-09-04T10:28:48.389Z,2.00
2017-09-04T10:31:16.629Z,2.27
2017-09-04T10:33:44.596Z,2.10
2017-09-04T10:36:13.250Z,2.60
2017-09-04T10:38:41.367Z,2.30
2017-09-04T10:41:09.369Z,1.60
2017-09-04T10:43:37.577Z,2.07
2017-09-04T10:46:05.072Z,1.97
2017-09-04T10:48:32.563Z,1.70
2017-09-04T10:51:00.054Z,1.80
2017-09-04T10:53:27.544Z,1.80
2017-09-04T10:55:55.035Z,1.93
2017-09-04T10:58:22.516Z,1.67
2017-09-04T11:00:50.003Z,1.83
2017-09-04T11:03:17.614Z,1.70
2017-09-04T11:05:45.075Z,1.07
2017-09-04T11:08:12.566Z,1.87
2017-09-04T11:10:40.098Z,2.40
2017-09-04T11:13:07.594Z,1.40
2017-09-04T11:15:35.112Z,1.73
2017-09-04T11:18:02.594Z,1.70
2017-09-04T11:20:30.085Z,1.73
2017-09-04T11:22:57.579Z,1.77
2017-09-04T11:25:25.068Z,2.57
2017-09-04T11:27:52.550Z,2.37
2017-09-04T11:30:20.026Z,1.93
2017-09-04T11:32:47.524Z,1.57
2017-09-04T11:35:15.006Z,1.67
2017-09-04T11:37:42.500Z,2.40
2017-09-04T11:40:09.995Z,1.70
2017-09-04T11:42:37.486Z,1.73
2017-09-04T11:45:04.992Z,1.30
2017-09-04T11:47:32.481Z,57.03
2017-09-04T11:49:59.964Z,149.57
2017-09-04T11:52:27.990Z,36.60
2017-09-04T11:54:55.483Z,46.80
2017-09-04T11:57:22.976Z,51.33
2017-09-04T11:59:50.469Z,45.60
2017-09-04T12:02:17.966Z,27.40
2017-09-04T12:04:45.462Z,34.10
2017-09-04T12:07:12.948Z,12.43
2017-09-04T12:09:40.430Z,11.43
2017-09-04T12:12:07.906Z,8.50
2017-09-04T12:14:35.430Z,3.97
2017-09-04T12:17:02.919Z,3.03
2017-09-04T12:19:30.395Z,5.83
2017-09-04T12:21:57.878Z,3.10
2017-09-04T12:24:25.353Z,2.70
2017-09-04T12:26:52.834Z,2.20
2017-09-04T12:29:20.321Z,2.93
2017-09-04T12:31:47.793Z,1.80
2017-09-04T12:34:15.291Z,1.80
2017-09-04T12:36:42.832Z,2.70
2017-09-04T12:39:10.320Z,1.57
2017-09-04T12:41:37.798Z,1.87
2017-09-04T12:44:05.283Z,1.90
2017-09-04T12:46:32.771Z,1.70
2017-09-04T12:49:00.255Z,1.97
2017-09-04T12:51:27.743Z,2.17
2017-09-04T12:53:55.236Z,1.70
2017-09-04T12:56:22.729Z,1.70
2017-09-04T12:58:50.222Z,1.50
2017-09-04T13:01:17.716Z,133.97
2017-09-04T13:03:45.216Z,78.53
2017-09-04T13:06:12.702Z,38.83
2017-09-04T13:08:40.196Z,16.70
2017-09-04T13:11:15.390Z,7.67
2017-09-04T13:13:48.668Z,3.97
2017-09-04T13:16:21.960Z,8.30
2017-09-04T13:18:55.186Z,2.60
2017-09-04T13:21:26.595Z,2.83
2017-09-04T13:23:59.824Z,2.40
2017-09-04T13:26:33.131Z,2.73
2017-09-04T13:29:15.506Z,1.40
2017-09-04T13:31:48.671Z,2.17
2017-09-04T13:34:32.894Z,2.00
2017-09-04T13:40:07.971Z,2.20
2017-09-04T13:42:46.171Z,1.90
2017-09-04T13:45:19.416Z,1.70
2017-09-04T13:47:52.694Z,1.20
2017-09-04T13:50:20.185Z,3.67
2017-09-04T13:52:53.362Z,1.97
2017-09-04T13:55:26.575Z,3.50
2017-09-04T13:57:59.783Z,56.93
2017-09-04T14:00:45.991Z,10.43
2017-09-04T14:03:22.066Z,2.20
2017-09-04T14:09:05.160Z,3.67
2017-09-04T14:11:38.345Z,3.50
2017-09-04T14:14:11.672Z,2.30
2017-09-04T14:16:44.999Z,3.20
2017-09-04T14:19:12.514Z,2.23
2017-09-04T14:21:39.991Z,5.43
2017-09-04T14:24:07.482Z,4.53
2017-09-04T14:26:34.969Z,4.03
2017-09-04T14:29:02.467Z,2.30
2017-09-04T14:31:29.966Z,2.57
2017-09-04T14:33:57.448Z,2.97
2017-09-04T14:36:24.955Z,3.53
2017-09-04T14:38:52.439Z,2.57
2017-09-04T14:46:43.079Z,3.47
2017-09-04T14:49:10.581Z,3.17
2017-09-04T14:51:38.070Z,4.80
2017-09-04T14:54:05.566Z,91.17
2017-09-04T14:56:33.053Z,78.47
2017-09-04T14:59:00.540Z,92.00
2017-09-04T15:01:28.018Z,16.20
2017-09-04T15:03:55.498Z,42.63
2017-09-04T15:06:22.983Z,29.83
2017-09-04T15:08:50.469Z,5.43
2017-09-04T15:11:17.951Z,24.90
2017-09-04T15:13:45.442Z,23.43
2017-09-04T15:16:12.926Z,5.30
2017-09-04T15:18:40.406Z,5.60
2017-09-04T15:21:07.889Z,2.80
2017-09-04T15:23:35.384Z,12.70
2017-09-04T15:26:02.868Z,1.90
2017-09-04T15:28:30.354Z,1.87
2017-09-04T15:30:57.843Z,1.47
2017-09-04T15:33:25.332Z,2.80
2017-09-04T15:35:52.802Z,2.77
2017-09-04T15:38:20.283Z,4.13
2017-09-04T15:40:47.766Z,3.20
2017-09-04T15:43:15.237Z,2.33
2017-09-04T15:45:42.714Z,4.00
2017-09-04T15:48:10.204Z,5.33
2017-09-04T15:50:37.696Z,5.00
2017-09-04T15:53:05.184Z,2.37
2017-09-04T15:55:32.679Z,159.97
2017-09-04T15:58:00.163Z,498.57
2017-09-04T16:00:27.660Z,139.20
2017-09-04T16:02:55.163Z,120.90
2017-09-04T16:05:22.667Z,32.83
2017-09-04T16:07:50.155Z,18.40
2017-09-04T16:10:17.647Z,37.10
2017-09-04T16:12:45.164Z,17.67
2017-09-04T16:15:13.247Z,23.53
2017-09-04T16:17:40.734Z,7.03
2017-09-04T16:20:11.510Z,14.30
2017-09-04T16:22:45.539Z,13.63
2017-09-04T16:25:14.709Z,10.80
2017-09-04T16:27:47.898Z,5.47
2017-09-04T16:30:32.045Z,11.57
2017-09-04T16:33:03.996Z,10.83
2017-09-04T16:35:37.258Z,8.07
2017-09-04T16:38:10.468Z,48.53
2017-09-04T16:40:38.726Z,185.93
2017-09-04T16:43:08.876Z,67.97
2017-09-04T16:45:42.954Z,11.13
2017-09-04T16:48:11.054Z,9.13
2017-09-04T16:50:41.958Z,5.47
2017-09-04T16:56:17.022Z,7.20
2017-09-04T16:58:44.516Z,13.83
2017-09-04T17:01:11.999Z,4.83
2017-09-04T17:03:39.485Z,5.97
2017-09-04T17:06:06.979Z,12.03
2017-09-04T17:08:37.294Z,9.70
2017-09-04T17:11:05.583Z,13.20
2017-09-04T17:13:33.832Z,2.90
2017-09-04T17:16:02.138Z,4.60
2017-09-04T17:18:32.237Z,6.00
2017-09-04T17:20:59.724Z,6.50
2017-09-04T17:23:30.655Z,6.70
2017-09-04T17:25:58.923Z,10.23
2017-09-04T17:28:26.407Z,8.90
2017-09-04T17:30:54.658Z,7.50
2017-09-04T17:33:22.137Z,12.13
2017-09-04T17:35:51.539Z,7.57
2017-09-04T17:38:19.018Z,5.30
2017-09-04T17:40:46.495Z,5.87
2017-09-04T17:43:13.978Z,7.63
2017-09-04T17:45:41.457Z,6.27
2017-09-04T17:48:08.933Z,4.77
2017-09-04T17:50:36.423Z,569.93
2017-09-04T17:53:03.910Z,110.33
2017-09-04T17:55:31.404Z,360.07
2017-09-04T17:57:59.003Z,286.93
2017-09-04T18:00:26.504Z,118.80
2017-09-04T18:02:54.009Z,192.87
2017-09-04T18:05:21.508Z,82.33
2017-09-04T18:07:49.000Z,27.20
2017-09-04T18:10:16.492Z,31.93
2017-09-04T18:12:43.970Z,13.43
2017-09-04T18:15:11.476Z,115.70
2017-09-04T18:17:39.008Z,91.13
2017-09-04T18:20:06.504Z,25.07
2017-09-04T18:22:34.096Z,72.07
2017-09-04T18:25:01.603Z,96.53
2017-09-04T18:27:29.093Z,224.37
2017-09-04T18:29:56.614Z,613.27
2017-09-04T18:32:24.112Z,656.13
2017-09-04T18:34:51.602Z,502.40
2017-09-04T18:37:19.085Z,730.03
2017-09-04T18:39:47.802Z,208.13
2017-09-04T18:42:15.280Z,297.57
2017-09-04T18:44:42.866Z,21.03
2017-09-04T18:47:10.348Z,7.17
2017-09-04T18:49:37.838Z,349.17
2017-09-04T18:52:05.340Z,87.93
2017-09-04T18:54:32.814Z,8.93
2017-09-04T18:57:00.315Z,139.40
2017-09-04T18:59:27.803Z,65.77
2017-09-04T19:01:55.305Z,27.90
2017-09-04T19:04:22.794Z,46.23
2017-09-04T19:06:50.271Z,3.60
2017-09-04T19:09:18.474Z,20.77
2017-09-04T19:11:45.973Z,641.50
2017-09-04T19:14:14.711Z,138.60
2017-09-04T19:16:42.254Z,30.03
2017-09-04T19:19:09.891Z,198.63
2017-09-04T19:21:37.402Z,40.13
2017-09-04T19:24:04.878Z,6.20
2017-09-04T19:26:32.379Z,128.73
2017-09-04T19:28:59.880Z,8.73
2017-09-04T19:31:28.464Z,2.97
2017-09-04T19:33:56.050Z,3.70
2017-09-04T19:36:23.535Z,5.57
2017-09-04T19:38:51.032Z,3.60
2017-09-04T19:41:18.561Z,4.40
2017-09-04T19:43:46.237Z,4.40
2017-09-04T19:46:13.727Z,6.30
2017-09-04T19:48:41.202Z,6.17
2017-09-04T19:51:08.687Z,16.53
2017-09-04T19:53:36.183Z,73.17
2017-09-04T19:56:03.682Z,34.67
2017-09-04T19:58:31.204Z,451.37
2017-09-04T20:00:58.690Z,418.67
2017-09-04T20:03:26.187Z,175.60
2017-09-04T20:05:55.061Z,22.53
2017-09-04T20:08:23.505Z,3.67
2017-09-04T20:10:51.129Z,2.40
2017-09-04T20:13:20.503Z,9.30
2017-09-04T20:15:50.327Z,2.70
2017-09-04T20:18:18.976Z,2.07
2017-09-04T20:20:47.460Z,2.50
2017-09-04T20:23:18.338Z,1.67
2017-09-04T20:25:46.602Z,6.63
2017-09-04T20:28:15.369Z,3.30
2017-09-04T20:30:42.851Z,3.00
2017-09-04T20:33:10.737Z,2.80
2017-09-04T20:35:39.054Z,2.13
2017-09-04T20:38:06.625Z,2.40
2017-09-04T20:40:34.242Z,2.83
2017-09-04T20:43:02.359Z,2.73
2017-09-04T20:45:30.775Z,3.03
2017-09-04T20:47:58.982Z,2.60
2017-09-04T20:50:27.084Z,2.73
2017-09-04T20:52:55.572Z,2.40
2017-09-04T20:55:24.251Z,2.10
2017-09-04T20:57:51.728Z,2.30
2017-09-04T21:00:19.692Z,2.20
2017-09-04T21:02:47.455Z,2.70
2017-09-04T21:05:16.251Z,8.93
2017-09-04T21:07:44.720Z,61.07
2017-09-04T21:10:13.570Z,129.30
2017-09-04T21:12:42.476Z,29.33
2017-09-04T21:15:10.088Z,33.10
2017-09-04T21:17:38.376Z,5.73
2017-09-04T21:20:06.353Z,5.80
2017-09-04T21:22:34.042Z,3.57
2017-09-04T21:25:02.666Z,4.27
2017-09-04T21:27:31.322Z,4.43
2017-09-04T21:29:59.502Z,3.00
2017-09-04T21:32:28.659Z,2.60
2017-09-04T21:34:56.358Z,5.43
2017-09-04T21:37:24.033Z,3.10
2017-09-04T21:39:51.955Z,2.70
2017-09-04T21:42:20.442Z,2.27
2017-09-04T21:44:48.151Z,2.50
2017-09-04T21:47:15.642Z,4.40
2017-09-04T21:49:43.292Z,2.80
2017-09-04T21:52:12.355Z,2.50
2017-09-04T21:54:39.923Z,2.60
2017-09-04T21:57:09.017Z,2.43
2017-09-04T21:59:37.326Z,2.53
2017-09-04T22:02:04.972Z,2.50
2017-09-04T22:04:33.330Z,2.80
2017-09-04T22:07:01.858Z,2.70
2017-09-04T22:09:29.330Z,2.77
2017-09-04T22:11:56.819Z,2.43
2017-09-04T22:14:24.302Z,21.57
2017-09-04T22:16:51.783Z,13.80
2017-09-04T22:19:19.263Z,8.60
2017-09-04T22:21:46.746Z,10.20
2017-09-04T22:24:14.225Z,8.27
2017-09-04T22:26:41.706Z,14.63
2017-09-04T22:29:09.187Z,5.03
2017-09-04T22:31:36.670Z,22.97
2017-09-04T22:34:04.232Z,3.30
2017-09-04T22:36:31.707Z,2.30
2017-09-04T22:38:59.194Z,13.57
2017-09-04T22:41:26.679Z,3.00
2017-09-04T22:43:54.159Z,5.30
2017-09-04T22:46:21.635Z,2.93
2017-09-04T22:48:49.128Z,26.70
2017-09-04T22:51:16.640Z,24.77
2017-09-04T22:53:44.126Z,9.27
2017-09-04T22:56:11.622Z,7.33
2017-09-04T22:58:54.899Z,19.77
2017-09-04T23:01:22.481Z,6.47
2017-09-04T23:03:50.034Z,11.20
2017-09-04T23:06:17.531Z,5.17
2017-09-04T23:08:45.243Z,8.63
2017-09-04T23:11:12.742Z,15.30
2017-09-04T23:13:40.236Z,3.20
2017-09-04T23:16:07.743Z,28.23
2017-09-04T23:18:35.225Z,5.50
2017-09-04T23:21:04.066Z,3.83
2017-09-04T23:23:31.923Z,3.17
2017-09-04T23:25:59.659Z,6.70
2017-09-04T23:28:27.320Z,14.17
2017-09-04T23:30:55.090Z,13.50
2017-09-04T23:33:22.754Z,13.17
2017-09-04T23:35:50.615Z,5.67
2017-09-04T23:38:18.334Z,5.73
2017-09-04T23:40:46.062Z,2.83
2017-09-04T23:43:13.649Z,8.50
2017-09-04T23:45:41.373Z,3.10
2017-09-04T23:48:09.033Z,3.63
2017-09-04T23:50:36.699Z,3.63
2017-09-04T23:53:04.318Z,3.47
2017-09-04T23:55:31.971Z,4.80
2017-09-04T23:57:59.646Z,3.30
